Time;durP1;ratioP1;P1;durP2;ratioP2;P2;SDS_P1;SDS_P2;PMS_P1;PMS_P2;Temp;Humidity;BMP_temperature;BMP_pressure;BME280_temperature;BME280_humidity;BME280_pressure;Samples;Min_cycle;Max_cycle;Signal;HPM_P1;HPM_P2
2022/11/24 00:01:26;;;;;;;17.15;3.70;;;9.00;99.90;;;;;;5135088;27;20182;-59
2022/11/24 00:03:55;;;;;;;14.77;3.50;;;9.00;99.90;;;;;;5134994;27;20632;-59
2022/11/24 00:06:21;;;;;;;15.13;3.65;;;9.10;99.90;;;;;;5116781;27;20200;-59
2022/11/24 00:08:47;;;;;;;11.32;3.90;;;9.20;99.90;;;;;;5135007;27;20296;-59
2022/11/24 00:11:15;;;;;;;13.30;4.30;;;9.10;99.90;;;;;;5099520;27;20586;-59
2022/11/24 00:13:42;;;;;;;14.75;4.43;;;9.20;99.90;;;;;;5134950;27;20180;-60
2022/11/24 00:16:18;;;;;;;19.92;4.53;;;9.20;99.90;;;;;;5116380;27;20226;-59
2022/11/24 00:18:46;;;;;;;13.98;4.43;;;9.10;99.90;;;;;;5134977;27;20270;-59
2022/11/24 00:21:13;;;;;;;17.95;4.35;;;9.10;99.90;;;;;;5116792;27;20248;-59
2022/11/24 00:23:39;;;;;;;18.65;5.32;;;9.00;99.90;;;;;;5116439;27;20512;-59
2022/11/24 00:26:06;;;;;;;16.52;4.38;;;9.00;99.90;;;;;;5134703;27;20252;-59
2022/11/24 00:28:33;;;;;;;14.27;4.50;;;9.10;99.90;;;;;;5134472;27;20536;-59
2022/11/24 00:30:59;;;;;;;12.43;4.40;;;9.00;99.90;;;;;;5134483;27;20229;-59
2022/11/24 00:33:25;;;;;;;12.75;4.45;;;9.00;99.90;;;;;;5134606;27;20201;-58
2022/11/24 00:35:57;;;;;;;12.77;3.15;;;9.00;99.90;;;;;;5134474;27;20251;-59
2022/11/24 00:38:24;;;;;;;13.52;3.38;;;9.10;99.90;;;;;;5116317;27;20199;-59
2022/11/24 00:40:51;;;;;;;15.07;4.18;;;8.90;99.90;;;;;;5134100;27;20621;-59
2022/11/24 00:43:17;;;;;;;16.73;3.97;;;8.90;99.90;;;;;;5134413;27;20188;-59
2022/11/24 00:45:42;;;;;;;14.98;4.32;;;8.80;99.90;;;;;;5134322;27;20172;-59
2022/11/24 00:48:09;;;;;;;15.70;4.00;;;8.90;99.90;;;;;;5116104;27;20233;-59
2022/11/24 00:50:35;;;;;;;16.50;4.07;;;8.90;99.90;;;;;;5133809;27;20176;-59
2022/11/24 00:53:01;;;;;;;18.58;4.47;;;8.90;99.90;;;;;;5133855;27;20165;-59
2022/11/24 00:55:26;;;;;;;14.52;4.85;;;8.90;99.90;;;;;;5134273;28;20179;-59
2022/11/24 00:57:52;;;;;;;13.55;3.88;;;8.90;99.90;;;;;;5134497;28;20172;-59
2022/11/24 01:00:18;;;;;;;18.17;4.47;;;8.90;99.90;;;;;;5115710;28;20191;-58
2022/11/24 01:02:43;;;;;;;17.55;5.18;;;9.00;99.90;;;;;;5134312;28;20179;-59
2022/11/24 01:05:09;;;;;;;14.68;4.75;;;9.10;99.90;;;;;;5115887;28;20165;-59
2022/11/24 01:07:35;;;;;;;18.65;4.95;;;9.10;99.90;;;;;;5134201;28;20196;-60
2022/11/24 01:10:01;;;;;;;14.85;4.65;;;9.20;99.90;;;;;;5134106;28;20220;-60
2022/11/24 01:12:27;;;;;;;18.85;5.22;;;9.20;99.90;;;;;;5099103;28;20165;-59
2022/11/24 01:14:53;;;;;;;20.70;5.50;;;9.30;99.90;;;;;;5133875;28;20160;-60
2022/11/24 01:17:18;;;;;;;19.52;5.43;;;9.30;99.90;;;;;;5134124;28;20178;-60
2022/11/24 01:19:46;;;;;;;21.83;5.22;;;9.30;99.90;;;;;;5115867;28;20605;-60
2022/11/24 01:22:12;;;;;;;20.98;5.70;;;9.40;99.90;;;;;;5115805;28;20516;-58
2022/11/24 01:24:38;;;;;;;16.67;5.57;;;9.40;99.90;;;;;;5115907;28;20251;-59
2022/11/24 01:27:03;;;;;;;21.23;5.50;;;9.40;99.90;;;;;;5115791;28;20288;-60
2022/11/24 01:29:29;;;;;;;19.60;6.10;;;9.30;99.90;;;;;;5134128;28;20209;-58
2022/11/24 01:31:55;;;;;;;20.92;5.53;;;9.50;99.90;;;;;;5134233;28;20318;-58
2022/11/24 01:34:20;;;;;;;19.20;5.80;;;9.50;99.90;;;;;;5134143;28;20603;-58
2022/11/24 01:36:46;;;;;;;19.80;5.30;;;9.40;99.90;;;;;;5115586;28;20263;-59
2022/11/24 01:39:12;;;;;;;18.15;5.40;;;9.40;99.90;;;;;;5133893;28;20179;-58
2022/11/24 01:41:38;;;;;;;25.25;5.53;;;9.50;99.90;;;;;;5134096;28;20341;-58
2022/11/24 01:44:25;;;;;;;19.60;5.65;;;9.50;99.90;;;;;;5115354;28;20637;-58
2022/11/24 01:47:04;;;;;;;26.85;5.75;;;9.50;99.90;;;;;;5133829;28;20247;-58
2022/11/24 01:49:44;;;;;;;19.83;5.90;;;9.60;99.90;;;;;;5134132;28;20203;-59
2022/11/24 01:52:23;;;;;;;20.52;6.28;;;9.60;99.90;;;;;;5134673;27;20163;-58
2022/11/24 01:54:56;;;;;;;21.17;5.47;;;9.80;99.90;;;;;;5137721;27;20224;-59
2022/11/24 01:57:28;;;;;;;27.15;6.20;;;9.60;99.90;;;;;;5137395;27;20621;-59
2022/11/24 02:00:00;;;;;;;22.15;5.80;;;9.70;99.90;;;;;;5137552;27;20164;-59
2022/11/24 02:02:28;;;;;;;21.70;5.82;;;9.80;99.90;;;;;;5137605;27;20160;-59
2022/11/24 02:04:57;;;;;;;20.70;5.68;;;9.90;99.90;;;;;;5137355;27;20177;-59
2022/11/24 02:07:24;;;;;;;19.70;5.97;;;9.80;99.90;;;;;;5137388;27;20223;-59
2022/11/24 02:10:12;;;;;;;20.73;6.07;;;9.80;99.90;;;;;;5137440;27;20173;-59
2022/11/24 02:12:40;;;;;;;22.60;6.45;;;9.80;99.90;;;;;;5137313;27;20631;-58
2022/11/24 02:15:08;;;;;;;22.02;6.20;;;9.80;99.90;;;;;;5137081;27;20255;-59
2022/11/24 02:17:34;;;;;;;26.42;5.32;;;9.50;99.90;;;;;;5137366;27;20168;-59
2022/11/24 02:20:03;;;;;;;23.60;5.68;;;9.60;99.90;;;;;;5137195;27;20272;-59
2022/11/24 02:22:39;;;;;;;25.30;6.40;;;9.50;99.90;;;;;;5137012;27;20260;-59
2022/11/24 02:25:23;;;;;;;20.63;5.35;;;9.50;99.90;;;;;;5137080;27;20166;-58
2022/11/24 02:27:51;;;;;;;19.58;5.68;;;9.50;99.90;;;;;;5137043;27;20196;-58
2022/11/24 02:30:16;;;;;;;19.23;4.25;;;9.50;99.90;;;;;;5101761;27;20234;-58
2022/11/24 02:32:42;;;;;;;23.08;5.78;;;9.40;99.90;;;;;;5136956;27;20165;-59
2022/11/24 02:35:10;;;;;;;18.80;5.88;;;9.40;99.90;;;;;;5101670;27;20176;-58
2022/11/24 02:37:35;;;;;;;18.52;5.72;;;9.50;99.90;;;;;;5136774;27;20168;-59
2022/11/24 02:40:01;;;;;;;15.90;4.40;;;9.40;99.90;;;;;;5136477;27;20616;-58
2022/11/24 02:42:31;;;;;;;13.38;3.40;;;9.40;99.90;;;;;;5136595;27;20176;-58
2022/11/24 02:44:59;;;;;;;13.55;3.50;;;9.50;99.90;;;;;;5136889;27;20588;-59
2022/11/24 02:47:25;;;;;;;18.30;4.63;;;9.40;99.90;;;;;;5118193;27;20199;-59
2022/11/24 02:49:50;;;;;;;12.32;3.90;;;9.50;99.90;;;;;;5136495;27;20165;-59
2022/11/24 02:52:17;;;;;;;11.73;3.35;;;9.40;99.90;;;;;;5136394;27;20175;-59
2022/11/24 02:54:42;;;;;;;8.50;2.45;;;9.40;99.90;;;;;;5136359;27;20189;-58
2022/11/24 02:57:08;;;;;;;6.57;2.35;;;9.20;99.90;;;;;;5136476;27;20215;-59
2022/11/24 02:59:34;;;;;;;10.07;2.85;;;8.90;99.90;;;;;;5136495;27;20212;-60
2022/11/24 03:02:00;;;;;;;5.85;1.70;;;8.90;99.90;;;;;;5136564;27;20176;-60
2022/11/24 03:04:25;;;;;;;4.22;1.38;;;8.80;99.90;;;;;;5117591;27;20176;-58
2022/11/24 03:06:51;;;;;;;4.97;1.63;;;8.70;99.90;;;;;;5117765;27;20649;-60
2022/11/24 03:09:17;;;;;;;4.18;1.60;;;8.90;99.90;;;;;;5136021;27;20614;-59
2022/11/24 03:11:42;;;;;;;7.15;1.58;;;8.80;99.90;;;;;;5135893;27;20332;-60
2022/11/24 03:14:08;;;;;;;3.42;1.35;;;8.90;99.90;;;;;;5117816;27;20497;-60
2022/11/24 03:16:34;;;;;;;5.82;1.55;;;9.00;99.90;;;;;;5136065;27;20167;-60
2022/11/24 03:19:00;;;;;;;3.95;1.30;;;9.10;99.90;;;;;;5117488;27;20624;-60
2022/11/24 03:21:26;;;;;;;3.90;1.27;;;9.10;99.90;;;;;;5135906;27;20247;-59
2022/11/24 03:23:52;;;;;;;4.32;1.30;;;8.90;99.90;;;;;;5135692;27;20200;-60
2022/11/24 03:26:19;;;;;;;4.13;1.50;;;9.00;99.90;;;;;;5135985;27;20619;-59
2022/11/24 03:28:45;;;;;;;3.03;1.20;;;8.90;99.90;;;;;;5135837;27;20653;-60
2022/11/24 03:31:12;;;;;;;4.82;1.40;;;8.80;99.90;;;;;;5135776;27;20183;-60
2022/11/24 03:33:38;;;;;;;4.32;1.10;;;8.90;99.90;;;;;;5135727;27;20172;-60
2022/11/24 03:36:05;;;;;;;4.13;1.05;;;8.90;99.90;;;;;;5135600;27;20277;-59
2022/11/24 03:38:31;;;;;;;4.20;1.33;;;9.00;99.90;;;;;;5117050;27;20176;-59
2022/11/24 03:40:56;;;;;;;9.05;2.05;;;9.20;99.90;;;;;;5135270;27;20191;-59
2022/11/24 03:43:22;;;;;;;4.28;1.40;;;9.10;99.90;;;;;;5135596;27;20172;-59
2022/11/24 03:45:49;;;;;;;6.15;1.65;;;8.90;99.90;;;;;;5135377;27;20168;-60
2022/11/24 03:48:16;;;;;;;8.15;1.55;;;9.20;99.90;;;;;;5116881;27;20200;-59
2022/11/24 03:50:42;;;;;;;4.47;1.73;;;9.30;99.90;;;;;;5135352;27;20517;-59
2022/11/24 03:53:08;;;;;;;7.20;1.25;;;9.20;99.90;;;;;;5135186;27;20171;-59
2022/11/24 03:55:33;;;;;;;5.55;1.60;;;9.10;99.90;;;;;;5135631;27;20160;-60
2022/11/24 03:57:59;;;;;;;7.43;1.85;;;9.10;99.90;;;;;;5135259;27;20169;-60
2022/11/24 04:00:25;;;;;;;5.70;1.70;;;9.00;99.90;;;;;;5135121;27;20172;-59
2022/11/24 04:02:50;;;;;;;3.80;1.73;;;9.10;99.90;;;;;;5135050;27;20172;-59
2022/11/24 04:05:16;;;;;;;11.70;2.28;;;8.90;99.90;;;;;;5082721;27;20173;-60
2022/11/24 04:07:42;;;;;;;4.70;1.40;;;8.70;99.90;;;;;;5134813;27;20200;-57
2022/11/24 04:10:08;;;;;;;6.72;2.03;;;8.60;99.90;;;;;;5116748;27;20172;-59
2022/11/24 04:12:42;;;;;;;4.20;0.90;;;8.60;99.90;;;;;;5135042;27;20508;-59
2022/11/24 04:15:09;;;;;;;6.15;1.65;;;8.50;99.90;;;;;;5134239;27;20302;-59
2022/11/24 04:17:35;;;;;;;5.07;1.20;;;8.50;99.90;;;;;;5116768;27;20207;-59
2022/11/24 04:20:00;;;;;;;3.85;1.30;;;8.50;99.90;;;;;;5116554;27;20200;-59
2022/11/24 04:22:26;;;;;;;5.88;1.67;;;8.40;99.90;;;;;;5134660;27;20521;-59
2022/11/24 04:24:52;;;;;;;3.83;1.00;;;8.40;99.90;;;;;;5116152;27;20251;-59
2022/11/24 04:27:18;;;;;;;4.63;1.20;;;8.30;99.90;;;;;;5099731;27;20210;-59
2022/11/24 04:29:43;;;;;;;5.55;1.58;;;8.30;99.90;;;;;;5116243;27;20175;-59
2022/11/24 04:32:09;;;;;;;6.55;1.50;;;8.40;99.90;;;;;;5134549;27;20167;-59
2022/11/24 04:34:35;;;;;;;4.05;1.10;;;8.40;99.90;;;;;;5134515;27;20168;-59
2022/11/24 04:37:00;;;;;;;5.25;1.45;;;8.30;99.90;;;;;;5134411;27;20636;-59
2022/11/24 04:39:26;;;;;;;5.40;1.55;;;8.20;99.90;;;;;;5134592;27;20248;-59
2022/11/24 04:41:52;;;;;;;3.35;1.35;;;8.10;99.90;;;;;;5134813;27;20183;-59
2022/11/24 04:44:18;;;;;;;3.33;1.00;;;8.10;99.90;;;;;;5134609;27;20169;-59
2022/11/24 04:46:43;;;;;;;5.65;1.63;;;8.10;99.90;;;;;;5116309;27;20487;-59
2022/11/24 04:49:10;;;;;;;5.78;1.50;;;8.10;99.90;;;;;;5134316;27;20255;-59
2022/11/24 04:51:37;;;;;;;4.38;1.10;;;8.10;99.90;;;;;;5134249;27;20164;-59
2022/11/24 04:54:04;;;;;;;6.53;1.30;;;8.10;99.90;;;;;;5134458;27;20165;-59
2022/11/24 04:56:29;;;;;;;5.30;1.48;;;8.20;99.90;;;;;;5134230;28;20168;-59
2022/11/24 04:58:55;;;;;;;7.05;1.33;;;8.20;99.90;;;;;;5134249;28;20173;-59
2022/11/24 05:01:20;;;;;;;4.85;1.10;;;8.20;99.90;;;;;;5134177;28;20172;-59
2022/11/24 05:03:46;;;;;;;5.60;1.20;;;8.30;99.90;;;;;;5134151;28;20502;-59
2022/11/24 05:06:12;;;;;;;6.00;1.35;;;8.30;99.90;;;;;;5134156;28;20172;-59
2022/11/24 05:08:37;;;;;;;5.13;1.25;;;8.20;99.90;;;;;;5115951;28;20672;-59
2022/11/24 05:11:05;;;;;;;5.03;1.40;;;8.20;99.90;;;;;;5115838;28;20207;-59
2022/11/24 05:13:30;;;;;;;4.82;1.20;;;8.30;99.90;;;;;;5134349;28;20165;-59
2022/11/24 05:15:56;;;;;;;3.25;1.33;;;8.20;99.90;;;;;;5094673;28;20186;-59
2022/11/24 05:18:22;;;;;;;4.07;1.20;;;8.10;99.90;;;;;;5113157;28;20280;-59
2022/11/24 05:20:48;;;;;;;4.50;1.50;;;8.30;99.90;;;;;;5113403;28;20226;-59
2022/11/24 05:23:14;;;;;;;4.95;1.60;;;8.30;99.90;;;;;;5113539;28;20184;-59
2022/11/24 05:25:40;;;;;;;6.60;1.70;;;8.30;99.90;;;;;;5113633;28;20176;-59
2022/11/24 05:28:10;;;;;;;4.75;1.42;;;8.30;99.90;;;;;;5117421;28;20215;-59
2022/11/24 05:30:37;;;;;;;5.30;1.70;;;8.30;99.90;;;;;;5099219;28;20173;-59
2022/11/24 05:33:10;;;;;;;5.93;1.15;;;8.30;99.90;;;;;;5117844;28;20172;-59
2022/11/24 05:35:36;;;;;;;4.30;1.13;;;8.20;99.90;;;;;;5117527;28;20172;-59
2022/11/24 05:38:03;;;;;;;5.85;1.45;;;8.20;99.90;;;;;;5099499;28;20603;-59
2022/11/24 05:40:30;;;;;;;3.10;1.20;;;8.10;99.90;;;;;;5117424;28;20193;-58
2022/11/24 05:42:56;;;;;;;5.88;1.27;;;7.90;99.90;;;;;;5099135;28;20173;-60
2022/11/24 05:45:21;;;;;;;6.53;1.55;;;8.00;99.90;;;;;;5098464;28;20606;-59
2022/11/24 05:47:49;;;;;;;3.65;1.17;;;7.90;99.90;;;;;;5098747;28;20208;-59
2022/11/24 05:50:17;;;;;;;3.70;1.20;;;8.00;99.90;;;;;;5117148;28;20209;-59
2022/11/24 05:52:42;;;;;;;5.38;1.52;;;8.10;99.90;;;;;;5116868;28;20173;-59
2022/11/24 05:55:10;;;;;;;7.80;1.73;;;8.00;99.90;;;;;;5116685;28;20206;-59
2022/11/24 05:57:35;;;;;;;5.30;1.40;;;8.00;99.90;;;;;;5116587;28;20180;-59
2022/11/24 06:00:06;;;;;;;7.97;1.52;;;8.00;99.90;;;;;;5065262;28;20170;-60
2022/11/24 06:02:31;;;;;;;7.75;1.77;;;7.90;99.90;;;;;;5098921;28;20530;-60
2022/11/24 06:04:57;;;;;;;9.73;1.60;;;7.90;99.90;;;;;;5116537;28;20181;-60
2022/11/24 06:07:23;;;;;;;3.80;1.30;;;8.00;99.90;;;;;;5114737;28;20204;-60
2022/11/24 06:09:49;;;;;;;5.25;1.77;;;8.00;99.90;;;;;;5116603;28;20181;-60
2022/11/24 06:12:15;;;;;;;10.93;1.63;;;7.80;99.90;;;;;;5098561;28;20176;-60
2022/11/24 06:14:40;;;;;;;7.20;1.50;;;8.00;99.90;;;;;;5116554;28;20622;-60
2022/11/24 06:17:08;;;;;;;6.25;1.92;;;8.00;99.90;;;;;;5098381;28;20223;-60
2022/11/24 06:19:34;;;;;;;12.55;2.42;;;7.90;99.90;;;;;;5116567;28;20197;-60
2022/11/24 06:22:00;;;;;;;10.00;2.47;;;7.90;99.90;;;;;;5116414;28;20204;-60
2022/11/24 06:24:25;;;;;;;8.55;1.60;;;8.00;99.90;;;;;;5116417;28;20705;-60
2022/11/24 06:26:51;;;;;;;7.15;1.80;;;8.10;99.90;;;;;;5098017;28;20276;-60
2022/11/24 06:29:16;;;;;;;9.00;2.22;;;8.00;99.90;;;;;;5081341;28;20176;-60
2022/11/24 06:31:42;;;;;;;11.48;2.17;;;8.10;99.90;;;;;;5098173;28;20184;-60
2022/11/24 06:34:10;;;;;;;10.95;2.88;;;8.10;99.90;;;;;;5098225;28;20206;-60
2022/11/24 06:36:37;;;;;;;8.35;1.88;;;8.00;99.90;;;;;;5116203;28;20177;-60
2022/11/24 06:39:03;;;;;;;10.00;2.60;;;7.90;99.90;;;;;;5115422;28;20172;-60
2022/11/24 06:41:29;;;;;;;7.65;1.40;;;8.00;99.90;;;;;;5097755;28;20283;-60
2022/11/24 06:43:55;;;;;;;10.40;2.55;;;7.90;99.90;;;;;;5116000;28;20212;-60
2022/11/24 06:46:21;;;;;;;7.50;2.05;;;7.90;99.90;;;;;;5081255;28;20227;-60
2022/11/24 06:48:49;;;;;;;6.70;1.83;;;7.90;99.90;;;;;;5115944;28;20200;-60
2022/11/24 06:51:17;;;;;;;7.03;2.05;;;7.90;99.90;;;;;;5115879;28;20704;-60
2022/11/24 06:53:43;;;;;;;9.85;1.70;;;7.80;99.90;;;;;;5115756;28;20182;-60
2022/11/24 06:56:11;;;;;;;9.85;2.00;;;7.80;99.90;;;;;;5115719;28;20272;-60
2022/11/24 06:58:46;;;;;;;6.15;2.08;;;7.90;99.90;;;;;;5115627;28;20176;-60
2022/11/24 07:01:20;;;;;;;8.52;1.85;;;8.10;99.90;;;;;;5097668;28;20168;-60
2022/11/24 07:03:47;;;;;;;6.93;1.50;;;8.10;99.90;;;;;;5115772;28;20176;-60
2022/11/24 07:06:13;;;;;;;12.32;2.75;;;8.10;99.90;;;;;;5097145;28;20181;-60
2022/11/24 07:08:39;;;;;;;10.02;2.72;;;8.10;99.90;;;;;;5097210;28;20289;-60
2022/11/24 07:11:14;;;;;;;9.25;2.10;;;8.10;99.90;;;;;;5097384;28;20622;-60
2022/11/24 07:13:40;;;;;;;8.20;1.98;;;8.00;99.90;;;;;;5115650;28;20215;-60
2022/11/24 07:16:20;;;;;;;11.15;2.70;;;8.10;99.90;;;;;;5115480;28;20179;-60
2022/11/24 07:18:47;;;;;;;8.98;2.97;;;8.00;99.90;;;;;;5115366;28;20173;-60
2022/11/24 07:21:13;;;;;;;10.45;2.17;;;7.90;99.90;;;;;;5115250;28;20173;-60
2022/11/24 07:23:39;;;;;;;11.93;2.60;;;7.90;99.90;;;;;;5115083;28;20255;-60
2022/11/24 07:26:06;;;;;;;10.68;2.95;;;8.10;99.90;;;;;;5115350;28;20177;-60
2022/11/24 07:28:33;;;;;;;9.00;2.60;;;8.30;99.90;;;;;;5115112;28;20201;-60
2022/11/24 07:31:03;;;;;;;10.20;2.80;;;8.20;99.90;;;;;;5080061;28;20185;-60
2022/11/24 07:33:28;;;;;;;12.05;2.20;;;8.20;99.90;;;;;;5115163;28;20188;-60
2022/11/24 07:35:58;;;;;;;12.25;2.90;;;8.20;99.90;;;;;;5114891;28;20177;-60
2022/11/24 07:38:24;;;;;;;12.15;2.28;;;8.30;99.90;;;;;;5115070;28;20196;-60
2022/11/24 07:40:49;;;;;;;13.15;2.70;;;8.20;99.90;;;;;;5096514;28;20657;-60
2022/11/24 07:43:15;;;;;;;16.35;3.00;;;8.20;99.90;;;;;;5096571;28;20193;-60
2022/11/24 07:45:41;;;;;;;11.73;3.70;;;8.20;99.90;;;;;;5114817;28;20184;-60
2022/11/24 07:48:06;;;;;;;15.68;2.83;;;8.20;99.90;;;;;;5114666;28;20231;-60
2022/11/24 07:50:32;;;;;;;11.38;3.40;;;8.10;99.90;;;;;;5079666;28;20183;-60
2022/11/24 07:53:04;;;;;;;9.80;3.10;;;8.10;99.90;;;;;;5096725;28;20226;-60
2022/11/24 07:55:29;;;;;;;15.27;5.05;;;8.40;99.90;;;;;;5096561;28;20177;-60
2022/11/24 07:57:59;;;;;;;10.77;4.25;;;8.50;99.90;;;;;;5114473;28;20180;-60
2022/11/24 08:00:26;;;;;;;11.75;3.10;;;8.70;99.90;;;;;;5114441;28;20174;-60
2022/11/24 08:02:52;;;;;;;14.57;3.80;;;8.70;99.90;;;;;;5114466;28;20177;-60
2022/11/24 08:05:17;;;;;;;7.60;2.38;;;8.60;99.90;;;;;;5114325;28;20179;-60
2022/11/24 08:07:43;;;;;;;15.00;3.95;;;8.70;99.90;;;;;;5114495;28;20203;-60
2022/11/24 08:10:09;;;;;;;17.33;3.92;;;8.60;99.90;;;;;;5114434;28;20202;-60
2022/11/24 08:12:34;;;;;;;15.38;4.50;;;8.60;99.90;;;;;;5114227;28;20226;-60
2022/11/24 08:15:00;;;;;;;15.38;4.53;;;8.70;99.90;;;;;;5079425;28;20672;-60
2022/11/24 08:17:28;;;;;;;19.23;4.05;;;8.70;99.90;;;;;;5114156;28;20209;-60
2022/11/24 08:19:53;;;;;;;17.85;5.25;;;8.60;99.90;;;;;;5095769;28;20200;-61
2022/11/24 08:22:19;;;;;;;12.57;4.60;;;8.70;99.90;;;;;;5096009;28;20642;-60
2022/11/24 08:24:47;;;;;;;15.98;3.40;;;8.80;99.90;;;;;;5114337;28;20177;-60
2022/11/24 08:27:14;;;;;;;15.23;4.53;;;8.80;99.90;;;;;;5095481;28;20578;-60
2022/11/24 08:29:40;;;;;;;18.27;3.72;;;8.80;99.90;;;;;;5114068;28;20172;-60
2022/11/24 08:32:06;;;;;;;17.77;4.50;;;8.90;99.90;;;;;;5095628;28;20173;-60
2022/11/24 08:34:32;;;;;;;12.55;4.05;;;8.90;99.90;;;;;;5113818;28;20248;-60
2022/11/24 08:36:57;;;;;;;16.40;4.25;;;8.90;99.90;;;;;;5114317;28;20180;-60
2022/11/24 08:39:23;;;;;;;17.23;3.78;;;8.80;99.90;;;;;;5113960;28;20173;-60
2022/11/24 08:41:48;;;;;;;15.75;5.15;;;8.90;99.90;;;;;;5095472;28;20550;-60
2022/11/24 08:44:16;;;;;;;16.67;5.80;;;8.90;99.90;;;;;;5113809;28;20177;-60
2022/11/24 08:46:41;;;;;;;13.55;4.40;;;8.90;99.90;;;;;;5113714;28;20612;-60
2022/11/24 08:49:08;;;;;;;18.05;5.32;;;9.00;99.90;;;;;;5113696;28;20301;-60
2022/11/24 08:51:34;;;;;;;13.90;4.50;;;9.00;99.90;;;;;;5095673;28;20174;-60
2022/11/24 08:54:00;;;;;;;16.70;5.47;;;9.20;99.90;;;;;;5113888;28;20305;-60
2022/11/24 08:56:27;;;;;;;16.80;3.72;;;9.10;99.90;;;;;;5113719;28;20188;-60
2022/11/24 08:58:54;;;;;;;16.63;5.30;;;9.20;99.90;;;;;;5114032;28;20256;-61
2022/11/24 09:01:21;;;;;;;15.80;4.72;;;9.10;99.90;;;;;;5113135;28;20208;-61
2022/11/24 09:03:49;;;;;;;13.65;4.75;;;9.20;99.90;;;;;;5113538;28;20537;-61
2022/11/24 09:06:16;;;;;;;15.15;4.70;;;9.20;99.90;;;;;;5113663;28;20179;-60
2022/11/24 09:08:41;;;;;;;15.10;4.95;;;9.10;99.90;;;;;;5113658;28;20208;-60
2022/11/24 09:11:10;;;;;;;14.95;4.78;;;9.20;99.90;;;;;;5113705;28;20177;-60
2022/11/24 09:13:36;;;;;;;12.13;4.53;;;9.30;99.90;;;;;;5113503;28;20219;-60
2022/11/24 09:16:04;;;;;;;11.82;4.72;;;9.30;99.90;;;;;;5095146;28;20592;-60
2022/11/24 09:18:29;;;;;;;13.20;4.47;;;9.40;99.90;;;;;;5113570;28;20570;-60
2022/11/24 09:21:05;;;;;;;16.90;5.05;;;9.40;99.90;;;;;;5095531;28;20264;-60
2022/11/24 09:23:31;;;;;;;11.98;3.85;;;9.60;99.90;;;;;;5113464;28;20538;-60
2022/11/24 09:26:02;;;;;;;14.35;4.85;;;9.70;99.90;;;;;;5113431;28;20180;-61
2022/11/24 09:28:28;;;;;;;12.10;3.90;;;9.80;99.90;;;;;;5113216;28;20192;-60
2022/11/24 09:30:54;;;;;;;13.07;4.10;;;9.70;99.90;;;;;;5113304;28;20645;-61
2022/11/24 09:33:19;;;;;;;15.18;4.25;;;9.60;99.90;;;;;;5113511;28;20181;-60
2022/11/24 09:35:49;;;;;;;12.40;3.65;;;9.70;99.90;;;;;;5095229;28;20181;-60
2022/11/24 09:38:14;;;;;;;9.27;3.53;;;9.80;99.90;;;;;;5113248;28;20184;-60
2022/11/24 09:40:40;;;;;;;9.07;3.47;;;9.90;99.90;;;;;;5094843;28;20554;-60
2022/11/24 09:43:15;;;;;;;7.95;3.42;;;9.80;99.90;;;;;;5094980;28;20538;-60
2022/11/24 09:45:45;;;;;;;9.98;3.75;;;9.90;99.90;;;;;;5113371;28;20172;-61
2022/11/24 09:48:28;;;;;;;10.27;3.60;;;9.90;99.90;;;;;;5113264;28;20208;-60
2022/11/24 09:50:58;;;;;;;12.38;4.40;;;10.10;99.90;;;;;;5113607;28;20180;-60
2022/11/24 09:53:29;;;;;;;10.75;3.58;;;10.10;99.90;;;;;;5113158;28;20165;-60
2022/11/24 09:55:59;;;;;;;13.50;4.35;;;10.10;99.90;;;;;;5113269;28;20518;-60
2022/11/24 09:58:47;;;;;;;14.15;4.30;;;10.00;99.90;;;;;;5113093;28;20311;-60
2022/11/24 10:01:33;;;;;;;15.73;5.15;;;10.20;99.90;;;;;;5113075;28;20182;-60
2022/11/24 10:04:00;;;;;;;13.48;4.97;;;10.40;99.90;;;;;;5112964;28;20252;-61
2022/11/24 10:06:39;;;;;;;13.75;4.50;;;10.50;99.90;;;;;;5112956;28;20181;-60
2022/11/24 10:09:20;;;;;;;10.18;3.38;;;10.40;99.90;;;;;;5112972;28;20216;-60
2022/11/24 10:11:55;;;;;;;9.93;4.25;;;10.40;99.90;;;;;;5112908;28;20695;-61
2022/11/24 10:14:26;;;;;;;13.27;3.30;;;10.40;99.90;;;;;;5115552;28;20638;-60
2022/11/24 10:17:28;;;;;;;12.90;3.90;;;10.60;99.90;;;;;;5116700;28;20626;-61
2022/11/24 10:20:05;;;;;;;11.02;3.72;;;10.80;99.90;;;;;;5116559;28;20592;-61
2022/11/24 10:22:54;;;;;;;13.95;4.05;;;10.80;99.90;;;;;;5116408;28;20630;-60
2022/11/24 10:25:25;;;;;;;12.25;3.90;;;10.70;99.90;;;;;;5098397;28;20173;-61
2022/11/24 10:28:04;;;;;;;11.90;4.05;;;10.90;99.90;;;;;;5116224;28;20682;-60
2022/11/24 10:30:30;;;;;;;11.57;3.50;;;11.00;99.90;;;;;;5116555;28;20162;-60
2022/11/24 10:33:00;;;;;;;13.98;4.45;;;10.90;99.90;;;;;;5098058;28;20286;-60
2022/11/24 10:35:51;;;;;;;11.75;3.88;;;11.00;99.90;;;;;;5116464;28;20256;-61
2022/11/24 10:38:24;;;;;;;11.18;3.97;;;11.20;99.90;;;;;;5116268;28;20181;-60
2022/11/24 10:40:58;;;;;;;12.43;4.10;;;11.30;99.90;;;;;;5116211;28;20644;-61
2022/11/24 10:43:29;;;;;;;12.77;3.92;;;11.30;99.90;;;;;;5116128;28;20251;-61
2022/11/24 10:46:32;;;;;;;10.88;3.90;;;11.10;99.90;;;;;;5116244;28;20218;-61
2022/11/24 10:49:02;;;;;;;14.52;4.43;;;11.10;99.90;;;;;;5116017;28;20199;-60
2022/11/24 10:51:31;;;;;;;9.88;3.25;;;11.10;99.90;;;;;;5116013;28;20180;-60
2022/11/24 10:54:05;;;;;;;11.15;3.50;;;11.30;99.90;;;;;;5115747;28;20242;-61
2022/11/24 10:56:40;;;;;;;13.02;4.18;;;11.30;99.90;;;;;;5115968;28;20168;-61
2022/11/24 10:59:33;;;;;;;15.30;4.22;;;11.50;99.90;;;;;;5097540;28;20253;-61
2022/11/24 11:01:58;;;;;;;10.77;3.88;;;11.60;99.90;;;;;;5115807;28;20249;-61
2022/11/24 11:04:26;;;;;;;12.15;4.45;;;11.60;99.90;;;;;;5097434;28;20227;-61
2022/11/24 11:07:05;;;;;;;11.73;4.18;;;11.70;99.90;;;;;;5115664;28;20240;-61
2022/11/24 11:09:31;;;;;;;12.25;4.50;;;11.70;99.90;;;;;;5115756;28;20245;-61
2022/11/24 11:12:09;;;;;;;14.07;3.90;;;11.60;99.90;;;;;;5115492;28;20235;-61
2022/11/24 11:14:35;;;;;;;16.13;4.53;;;11.70;99.90;;;;;;5097465;28;20174;-61
2022/11/24 11:17:01;;;;;;;10.05;4.07;;;11.70;99.90;;;;;;5115560;28;20302;-60
2022/11/24 11:19:39;;;;;;;12.35;4.43;;;11.70;99.90;;;;;;5115461;28;20162;-60
2022/11/24 11:22:14;;;;;;;12.57;4.93;;;11.50;99.90;;;;;;5115200;28;20161;-60
2022/11/24 11:24:42;;;;;;;12.88;4.28;;;11.40;99.90;;;;;;5114699;28;20172;-60
2022/11/24 11:27:20;;;;;;;13.80;4.38;;;11.50;99.90;;;;;;5115096;28;20244;-61
2022/11/24 11:29:46;;;;;;;14.90;3.65;;;11.60;99.90;;;;;;5115193;28;20653;-60
2022/11/24 11:32:20;;;;;;;11.82;3.80;;;11.60;99.90;;;;;;5097045;28;20176;-60
2022/11/24 11:34:48;;;;;;;11.60;3.38;;;11.70;99.90;;;;;;5114982;28;20180;-60
2022/11/24 11:37:15;;;;;;;11.65;4.05;;;11.80;99.90;;;;;;5115026;28;20169;-60
2022/11/24 11:39:44;;;;;;;11.85;3.58;;;11.80;99.90;;;;;;5114682;28;20203;-60
2022/11/24 11:42:32;;;;;;;8.75;3.78;;;11.80;99.90;;;;;;5115265;28;20189;-60
2022/11/24 11:45:06;;;;;;;10.77;3.63;;;11.90;99.90;;;;;;5114996;28;20165;-60
2022/11/24 11:47:42;;;;;;;12.75;3.45;;;12.00;99.90;;;;;;5115147;28;20197;-60
2022/11/24 11:50:13;;;;;;;13.43;4.10;;;12.10;99.90;;;;;;5114975;28;20259;-60
2022/11/24 11:53:12;;;;;;;10.57;3.25;;;12.20;99.90;;;;;;5114912;28;20169;-60
2022/11/24 11:55:53;;;;;;;13.20;3.53;;;12.20;99.90;;;;;;5114770;28;20169;-60
2022/11/24 11:58:35;;;;;;;8.07;2.85;;;12.10;99.90;;;;;;5114557;28;20185;-60
2022/11/24 12:01:32;;;;;;;9.75;3.13;;;12.10;99.90;;;;;;5115108;28;20169;-60
2022/11/24 12:04:06;;;;;;;10.75;3.55;;;12.00;99.90;;;;;;5114820;28;20217;-60
2022/11/24 12:06:59;;;;;;;10.85;3.35;;;11.90;99.90;;;;;;5114388;28;20168;-60
2022/11/24 12:10:07;;;;;;;14.40;3.40;;;11.90;99.90;;;;;;5114571;28;20237;-60
2022/11/24 12:13:17;;;;;;;12.88;3.75;;;11.90;99.90;;;;;;5066497;28;20185;-60
2022/11/24 12:15:55;;;;;;;14.02;3.58;;;11.90;99.90;;;;;;5011798;28;20177;-60
2022/11/24 12:18:41;;;;;;;12.90;3.63;;;11.70;99.90;;;;;;5011994;28;20216;-60
2022/11/24 12:21:17;;;;;;;11.15;3.47;;;11.70;99.90;;;;;;5086587;28;20195;-60
2022/11/24 12:24:01;;;;;;;9.60;3.50;;;11.50;99.90;;;;;;5113978;28;20173;-60
2022/11/24 12:26:42;;;;;;;10.50;3.35;;;11.50;99.90;;;;;;5114177;28;20169;-60
2022/11/24 12:29:38;;;;;;;13.15;4.00;;;11.40;99.90;;;;;;5114073;28;20253;-60
2022/11/24 12:32:32;;;;;;;10.85;3.80;;;11.60;99.90;;;;;;5095936;28;20648;-60
2022/11/24 12:35:27;;;;;;;12.10;3.38;;;11.50;99.90;;;;;;5114028;28;20230;-60
2022/11/24 12:38:17;;;;;;;10.55;3.33;;;11.70;99.90;;;;;;5113796;28;20165;-59
2022/11/24 12:41:19;;;;;;;11.45;4.25;;;11.90;99.90;;;;;;5113982;28;20705;-60
2022/11/24 12:43:53;;;;;;;10.07;3.45;;;12.20;99.90;;;;;;5113888;28;20532;-60
2022/11/24 12:46:44;;;;;;;13.98;3.95;;;12.30;99.90;;;;;;5113782;28;20183;-60
2022/11/24 12:49:28;;;;;;;12.18;3.60;;;12.30;99.90;;;;;;5113852;28;20219;-60
2022/11/24 12:52:08;;;;;;;12.98;4.00;;;12.40;99.90;;;;;;5113829;28;20177;-60
2022/11/24 12:54:38;;;;;;;11.55;3.70;;;12.30;99.90;;;;;;5113708;28;20200;-60
2022/11/24 12:57:16;;;;;;;12.10;3.40;;;12.40;99.90;;;;;;5113910;28;20256;-60
2022/11/24 12:59:53;;;;;;;10.00;3.50;;;12.20;99.90;;;;;;5113728;28;20526;-60
2022/11/24 13:02:59;;;;;;;15.27;3.78;;;12.20;99.90;;;;;;5113762;28;20260;-60